sensor_id;sensor_type;location;lat;lon;timestamp;P1;durP1;ratioP1;P2;durP2;ratioP2
18302;SDS011;9277;37.980;23.748;2023-02-03T00:00:45;6.95;;;3.72;;
18302;SDS011;9277;37.980;23.748;2023-02-03T00:03:12;8.10;;;3.65;;
18302;SDS011;9277;37.980;23.748;2023-02-03T00:05:39;6.22;;;3.75;;
18302;SDS011;9277;37.980;23.748;2023-02-03T00:08:07;8.63;;;3.92;;
18302;SDS011;9277;37.980;23.748;2023-02-03T00:10:37;6.72;;;2.95;;
18302;SDS011;9277;37.980;23.748;2023-02-03T00:13:05;11.82;;;4.22;;
18302;SDS011;9277;37.980;23.748;2023-02-03T00:15:34;5.07;;;3.20;;
18302;SDS011;9277;37.980;23.748;2023-02-03T00:18:01;4.05;;;3.22;;
18302;SDS011;9277;37.980;23.748;2023-02-03T00:20:27;4.25;;;2.53;;
18302;SDS011;9277;37.980;23.748;2023-02-03T00:23:01;6.38;;;3.40;;
18302;SDS011;9277;37.980;23.748;2023-02-03T00:25:29;5.88;;;3.03;;
18302;SDS011;9277;37.980;23.748;2023-02-03T00:27:57;4.65;;;3.08;;
18302;SDS011;9277;37.980;23.748;2023-02-03T00:30:24;6.05;;;3.13;;
18302;SDS011;9277;37.980;23.748;2023-02-03T00:32:52;4.78;;;3.05;;
18302;SDS011;9277;37.980;23.748;2023-02-03T00:35:19;7.70;;;3.53;;
18302;SDS011;9277;37.980;23.748;2023-02-03T00:37:50;4.10;;;2.85;;
18302;SDS011;9277;37.980;23.748;2023-02-03T00:40:17;5.20;;;3.15;;
18302;SDS011;9277;37.980;23.748;2023-02-03T00:42:45;8.65;;;3.42;;
18302;SDS011;9277;37.980;23.748;2023-02-03T00:45:13;5.32;;;2.97;;
18302;SDS011;9277;37.980;23.748;2023-02-03T00:47:41;4.20;;;2.92;;
18302;SDS011;9277;37.980;23.748;2023-02-03T00:50:08;8.35;;;4.03;;
18302;SDS011;9277;37.980;23.748;2023-02-03T00:52:36;5.65;;;2.85;;
18302;SDS011;9277;37.980;23.748;2023-02-03T00:55:03;6.63;;;3.10;;
18302;SDS011;9277;37.980;23.748;2023-02-03T00:57:31;7.40;;;2.67;;
18302;SDS011;9277;37.980;23.748;2023-02-03T00:59:58;6.40;;;2.58;;
18302;SDS011;9277;37.980;23.748;2023-02-03T01:02:27;3.63;;;2.67;;
18302;SDS011;9277;37.980;23.748;2023-02-03T01:04:54;5.07;;;3.17;;
18302;SDS011;9277;37.980;23.748;2023-02-03T01:07:21;4.82;;;2.42;;
18302;SDS011;9277;37.980;23.748;2023-02-03T01:09:48;5.25;;;3.22;;
18302;SDS011;9277;37.980;23.748;2023-02-03T01:12:15;7.20;;;2.58;;
18302;SDS011;9277;37.980;23.748;2023-02-03T01:14:42;8.00;;;2.85;;
18302;SDS011;9277;37.980;23.748;2023-02-03T01:17:09;4.55;;;3.00;;
18302;SDS011;9277;37.980;23.748;2023-02-03T01:19:38;7.70;;;3.10;;
18302;SDS011;9277;37.980;23.748;2023-02-03T01:22:04;7.75;;;3.45;;
18302;SDS011;9277;37.980;23.748;2023-02-03T01:24:31;7.78;;;3.30;;
18302;SDS011;9277;37.980;23.748;2023-02-03T01:26:58;5.05;;;2.97;;
18302;SDS011;9277;37.980;23.748;2023-02-03T01:29:24;3.95;;;2.72;;
18302;SDS011;9277;37.980;23.748;2023-02-03T01:31:52;7.35;;;3.08;;
18302;SDS011;9277;37.980;23.748;2023-02-03T01:34:19;6.50;;;2.70;;
18302;SDS011;9277;37.980;23.748;2023-02-03T01:36:47;5.20;;;2.75;;
18302;SDS011;9277;37.980;23.748;2023-02-03T01:39:14;5.15;;;2.63;;
18302;SDS011;9277;37.980;23.748;2023-02-03T01:41:41;4.07;;;2.47;;
18302;SDS011;9277;37.980;23.748;2023-02-03T01:46:54;3.88;;;2.50;;
18302;SDS011;9277;37.980;23.748;2023-02-03T01:49:21;4.80;;;2.80;;
18302;SDS011;9277;37.980;23.748;2023-02-03T01:51:51;3.60;;;2.47;;
18302;SDS011;9277;37.980;23.748;2023-02-03T01:54:21;8.07;;;3.03;;
18302;SDS011;9277;37.980;23.748;2023-02-03T01:56:54;5.68;;;2.90;;
18302;SDS011;9277;37.980;23.748;2023-02-03T01:59:24;4.18;;;3.00;;
18302;SDS011;9277;37.980;23.748;2023-02-03T02:01:52;5.63;;;3.17;;
18302;SDS011;9277;37.980;23.748;2023-02-03T02:04:21;5.88;;;3.75;;
18302;SDS011;9277;37.980;23.748;2023-02-03T02:06:55;7.18;;;3.25;;
18302;SDS011;9277;37.980;23.748;2023-02-03T02:09:24;10.30;;;3.83;;
18302;SDS011;9277;37.980;23.748;2023-02-03T02:11:51;4.95;;;3.30;;
18302;SDS011;9277;37.980;23.748;2023-02-03T02:14:17;4.35;;;2.97;;
18302;SDS011;9277;37.980;23.748;2023-02-03T02:16:46;4.25;;;2.75;;
18302;SDS011;9277;37.980;23.748;2023-02-03T02:22:03;6.45;;;3.13;;
18302;SDS011;9277;37.980;23.748;2023-02-03T02:24:38;5.15;;;2.90;;
18302;SDS011;9277;37.980;23.748;2023-02-03T02:27:08;4.78;;;2.88;;
18302;SDS011;9277;37.980;23.748;2023-02-03T02:29:48;4.22;;;2.90;;
18302;SDS011;9277;37.980;23.748;2023-02-03T02:32:25;3.60;;;2.72;;
18302;SDS011;9277;37.980;23.748;2023-02-03T02:34:56;4.55;;;2.80;;
18302;SDS011;9277;37.980;23.748;2023-02-03T02:37:29;4.20;;;2.67;;
18302;SDS011;9277;37.980;23.748;2023-02-03T02:40:06;8.75;;;2.80;;
18302;SDS011;9277;37.980;23.748;2023-02-03T02:42:42;5.35;;;2.72;;
18302;SDS011;9277;37.980;23.748;2023-02-03T02:45:14;6.35;;;2.70;;
18302;SDS011;9277;37.980;23.748;2023-02-03T02:47:46;3.72;;;2.80;;
18302;SDS011;9277;37.980;23.748;2023-02-03T02:50:15;4.43;;;2.83;;
18302;SDS011;9277;37.980;23.748;2023-02-03T02:52:43;3.47;;;2.45;;
18302;SDS011;9277;37.980;23.748;2023-02-03T02:55:13;5.90;;;2.10;;
18302;SDS011;9277;37.980;23.748;2023-02-03T02:57:41;6.68;;;2.53;;
18302;SDS011;9277;37.980;23.748;2023-02-03T03:00:08;3.40;;;2.63;;
18302;SDS011;9277;37.980;23.748;2023-02-03T03:02:35;6.38;;;2.40;;
18302;SDS011;9277;37.980;23.748;2023-02-03T03:05:04;2.58;;;2.22;;
18302;SDS011;9277;37.980;23.748;2023-02-03T03:07:32;3.58;;;2.38;;
18302;SDS011;9277;37.980;23.748;2023-02-03T03:10:02;3.63;;;2.35;;
18302;SDS011;9277;37.980;23.748;2023-02-03T03:12:29;4.78;;;2.80;;
18302;SDS011;9277;37.980;23.748;2023-02-03T03:14:57;7.15;;;3.28;;
18302;SDS011;9277;37.980;23.748;2023-02-03T03:17:25;3.42;;;2.53;;
18302;SDS011;9277;37.980;23.748;2023-02-03T03:19:56;4.57;;;2.88;;
18302;SDS011;9277;37.980;23.748;2023-02-03T03:22:29;4.88;;;2.90;;
18302;SDS011;9277;37.980;23.748;2023-02-03T03:24:58;5.80;;;3.13;;
18302;SDS011;9277;37.980;23.748;2023-02-03T03:27:28;2.78;;;2.42;;
18302;SDS011;9277;37.980;23.748;2023-02-03T03:29:56;4.05;;;2.90;;
18302;SDS011;9277;37.980;23.748;2023-02-03T03:32:24;7.10;;;3.10;;
18302;SDS011;9277;37.980;23.748;2023-02-03T03:34:52;6.35;;;3.10;;
18302;SDS011;9277;37.980;23.748;2023-02-03T03:37:21;4.03;;;2.50;;
18302;SDS011;9277;37.980;23.748;2023-02-03T03:39:53;5.03;;;2.47;;
18302;SDS011;9277;37.980;23.748;2023-02-03T03:42:22;5.00;;;2.53;;
18302;SDS011;9277;37.980;23.748;2023-02-03T03:44:51;4.45;;;2.55;;
18302;SDS011;9277;37.980;23.748;2023-02-03T03:47:20;7.88;;;3.22;;
18302;SDS011;9277;37.980;23.748;2023-02-03T03:49:49;7.65;;;3.30;;
18302;SDS011;9277;37.980;23.748;2023-02-03T03:52:17;4.55;;;2.95;;
18302;SDS011;9277;37.980;23.748;2023-02-03T03:54:46;3.22;;;2.72;;
18302;SDS011;9277;37.980;23.748;2023-02-03T03:57:17;3.67;;;2.78;;
18302;SDS011;9277;37.980;23.748;2023-02-03T03:59:45;2.88;;;2.17;;
18302;SDS011;9277;37.980;23.748;2023-02-03T04:02:13;4.57;;;2.45;;
18302;SDS011;9277;37.980;23.748;2023-02-03T04:04:40;4.40;;;2.40;;
18302;SDS011;9277;37.980;23.748;2023-02-03T04:07:09;2.92;;;2.50;;
18302;SDS011;9277;37.980;23.748;2023-02-03T04:09:37;3.72;;;2.65;;
18302;SDS011;9277;37.980;23.748;2023-02-03T04:12:08;4.30;;;2.45;;
18302;SDS011;9277;37.980;23.748;2023-02-03T04:14:40;6.22;;;2.72;;
18302;SDS011;9277;37.980;23.748;2023-02-03T04:17:07;3.13;;;2.47;;
18302;SDS011;9277;37.980;23.748;2023-02-03T04:19:34;4.50;;;2.90;;
18302;SDS011;9277;37.980;23.748;2023-02-03T04:22:00;4.78;;;2.65;;
18302;SDS011;9277;37.980;23.748;2023-02-03T04:24:27;5.05;;;2.95;;
18302;SDS011;9277;37.980;23.748;2023-02-03T04:26:54;4.63;;;3.20;;
18302;SDS011;9277;37.980;23.748;2023-02-03T04:29:21;4.25;;;2.13;;
18302;SDS011;9277;37.980;23.748;2023-02-03T04:31:49;2.95;;;2.38;;
18302;SDS011;9277;37.980;23.748;2023-02-03T04:34:16;7.03;;;2.67;;
18302;SDS011;9277;37.980;23.748;2023-02-03T04:36:43;2.60;;;2.15;;
18302;SDS011;9277;37.980;23.748;2023-02-03T04:39:10;2.35;;;2.15;;
18302;SDS011;9277;37.980;23.748;2023-02-03T04:41:37;4.40;;;2.42;;
18302;SDS011;9277;37.980;23.748;2023-02-03T04:44:04;3.40;;;2.40;;
18302;SDS011;9277;37.980;23.748;2023-02-03T04:46:31;4.78;;;2.42;;
18302;SDS011;9277;37.980;23.748;2023-02-03T04:48:59;6.43;;;2.60;;
18302;SDS011;9277;37.980;23.748;2023-02-03T04:51:26;3.22;;;2.58;;
18302;SDS011;9277;37.980;23.748;2023-02-03T04:53:52;6.35;;;3.03;;
18302;SDS011;9277;37.980;23.748;2023-02-03T04:56:19;5.53;;;2.70;;
18302;SDS011;9277;37.980;23.748;2023-02-03T04:58:46;5.47;;;3.03;;
18302;SDS011;9277;37.980;23.748;2023-02-03T05:01:13;3.42;;;2.17;;
18302;SDS011;9277;37.980;23.748;2023-02-03T05:03:39;4.50;;;2.40;;
18302;SDS011;9277;37.980;23.748;2023-02-03T05:06:07;3.20;;;2.35;;
18302;SDS011;9277;37.980;23.748;2023-02-03T05:08:34;3.83;;;2.80;;
18302;SDS011;9277;37.980;23.748;2023-02-03T05:11:01;3.90;;;2.28;;
18302;SDS011;9277;37.980;23.748;2023-02-03T05:13:28;2.85;;;2.25;;
18302;SDS011;9277;37.980;23.748;2023-02-03T05:15:54;4.50;;;2.30;;
18302;SDS011;9277;37.980;23.748;2023-02-03T05:18:21;2.10;;;1.70;;
18302;SDS011;9277;37.980;23.748;2023-02-03T05:20:48;3.97;;;1.90;;
18302;SDS011;9277;37.980;23.748;2023-02-03T05:23:16;2.47;;;2.20;;
18302;SDS011;9277;37.980;23.748;2023-02-03T05:25:43;2.33;;;2.05;;
18302;SDS011;9277;37.980;23.748;2023-02-03T05:28:10;3.45;;;2.25;;
18302;SDS011;9277;37.980;23.748;2023-02-03T05:30:37;7.93;;;2.30;;
18302;SDS011;9277;37.980;23.748;2023-02-03T05:33:04;5.07;;;2.03;;
18302;SDS011;9277;37.980;23.748;2023-02-03T05:35:31;3.55;;;2.25;;
18302;SDS011;9277;37.980;23.748;2023-02-03T05:37:58;5.20;;;2.50;;
18302;SDS011;9277;37.980;23.748;2023-02-03T05:40:27;3.72;;;2.63;;
18302;SDS011;9277;37.980;23.748;2023-02-03T05:43:11;7.45;;;2.20;;
18302;SDS011;9277;37.980;23.748;2023-02-03T05:45:38;3.67;;;2.65;;
18302;SDS011;9277;37.980;23.748;2023-02-03T05:48:05;7.47;;;3.00;;
18302;SDS011;9277;37.980;23.748;2023-02-03T05:50:33;7.78;;;3.22;;
18302;SDS011;9277;37.980;23.748;2023-02-03T05:53:01;4.90;;;2.97;;
18302;SDS011;9277;37.980;23.748;2023-02-03T05:55:30;6.00;;;3.17;;
18302;SDS011;9277;37.980;23.748;2023-02-03T05:57:58;52.53;;;5.32;;
18302;SDS011;9277;37.980;23.748;2023-02-03T06:00:26;64.95;;;5.55;;
18302;SDS011;9277;37.980;23.748;2023-02-03T06:02:54;29.15;;;3.80;;
18302;SDS011;9277;37.980;23.748;2023-02-03T06:05:23;17.33;;;3.28;;
18302;SDS011;9277;37.980;23.748;2023-02-03T06:07:51;4.90;;;2.55;;
18302;SDS011;9277;37.980;23.748;2023-02-03T06:10:18;4.45;;;2.17;;
18302;SDS011;9277;37.980;23.748;2023-02-03T06:12:47;4.25;;;2.13;;
18302;SDS011;9277;37.980;23.748;2023-02-03T06:15:14;3.70;;;2.60;;
18302;SDS011;9277;37.980;23.748;2023-02-03T06:17:42;2.47;;;2.25;;
18302;SDS011;9277;37.980;23.748;2023-02-03T06:20:11;2.95;;;2.60;;
18302;SDS011;9277;37.980;23.748;2023-02-03T06:22:40;7.63;;;2.25;;
18302;SDS011;9277;37.980;23.748;2023-02-03T06:25:07;3.55;;;2.60;;
18302;SDS011;9277;37.980;23.748;2023-02-03T06:27:34;3.08;;;2.38;;
18302;SDS011;9277;37.980;23.748;2023-02-03T06:30:04;4.13;;;2.70;;
18302;SDS011;9277;37.980;23.748;2023-02-03T06:32:31;7.00;;;2.47;;
18302;SDS011;9277;37.980;23.748;2023-02-03T06:34:58;3.10;;;2.20;;
18302;SDS011;9277;37.980;23.748;2023-02-03T06:37:25;5.32;;;2.58;;
18302;SDS011;9277;37.980;23.748;2023-02-03T06:39:52;3.67;;;2.28;;
18302;SDS011;9277;37.980;23.748;2023-02-03T06:42:19;2.80;;;1.83;;
18302;SDS011;9277;37.980;23.748;2023-02-03T06:44:46;2.88;;;2.15;;
18302;SDS011;9277;37.980;23.748;2023-02-03T06:47:15;3.30;;;1.77;;
18302;SDS011;9277;37.980;23.748;2023-02-03T06:49:42;3.05;;;1.83;;
18302;SDS011;9277;37.980;23.748;2023-02-03T06:52:09;3.95;;;2.15;;
18302;SDS011;9277;37.980;23.748;2023-02-03T06:54:36;3.22;;;1.92;;
18302;SDS011;9277;37.980;23.748;2023-02-03T06:57:03;5.78;;;2.33;;
18302;SDS011;9277;37.980;23.748;2023-02-03T06:59:30;3.40;;;2.20;;
18302;SDS011;9277;37.980;23.748;2023-02-03T07:01:58;4.22;;;2.55;;
18302;SDS011;9277;37.980;23.748;2023-02-03T07:04:26;4.53;;;2.90;;
18302;SDS011;9277;37.980;23.748;2023-02-03T07:06:54;9.95;;;3.72;;
18302;SDS011;9277;37.980;23.748;2023-02-03T07:09:21;9.13;;;3.88;;
18302;SDS011;9277;37.980;23.748;2023-02-03T07:11:48;12.10;;;4.22;;
18302;SDS011;9277;37.980;23.748;2023-02-03T07:14:16;9.88;;;3.97;;
18302;SDS011;9277;37.980;23.748;2023-02-03T07:16:43;7.90;;;4.07;;
18302;SDS011;9277;37.980;23.748;2023-02-03T07:19:10;10.02;;;4.63;;
18302;SDS011;9277;37.980;23.748;2023-02-03T07:21:39;15.80;;;4.57;;
18302;SDS011;9277;37.980;23.748;2023-02-03T07:24:06;11.82;;;4.43;;
18302;SDS011;9277;37.980;23.748;2023-02-03T07:26:33;12.73;;;4.85;;
18302;SDS011;9277;37.980;23.748;2023-02-03T07:29:00;9.98;;;4.57;;
18302;SDS011;9277;37.980;23.748;2023-02-03T07:31:29;9.30;;;4.13;;
18302;SDS011;9277;37.980;23.748;2023-02-03T07:33:57;9.25;;;4.57;;
18302;SDS011;9277;37.980;23.748;2023-02-03T07:36:27;11.80;;;4.32;;
18302;SDS011;9277;37.980;23.748;2023-02-03T07:38:57;11.38;;;4.18;;
18302;SDS011;9277;37.980;23.748;2023-02-03T07:41:24;14.45;;;4.63;;
18302;SDS011;9277;37.980;23.748;2023-02-03T07:43:52;14.00;;;4.68;;
18302;SDS011;9277;37.980;23.748;2023-02-03T07:46:19;13.23;;;4.28;;
18302;SDS011;9277;37.980;23.748;2023-02-03T07:48:47;6.90;;;4.10;;
18302;SDS011;9277;37.980;23.748;2023-02-03T07:51:15;13.30;;;4.57;;
18302;SDS011;9277;37.980;23.748;2023-02-03T07:53:42;7.97;;;3.60;;
18302;SDS011;9277;37.980;23.748;2023-02-03T07:56:11;6.30;;;3.08;;
18302;SDS011;9277;37.980;23.748;2023-02-03T07:58:39;6.13;;;2.50;;
18302;SDS011;9277;37.980;23.748;2023-02-03T08:01:10;4.10;;;2.22;;
18302;SDS011;9277;37.980;23.748;2023-02-03T08:03:38;1.80;;;1.70;;
18302;SDS011;9277;37.980;23.748;2023-02-03T08:06:05;2.88;;;1.88;;
18302;SDS011;9277;37.980;23.748;2023-02-03T08:08:33;3.03;;;1.60;;
18302;SDS011;9277;37.980;23.748;2023-02-03T08:11:00;2.25;;;1.45;;
18302;SDS011;9277;37.980;23.748;2023-02-03T08:13:29;3.85;;;2.05;;
18302;SDS011;9277;37.980;23.748;2023-02-03T08:15:57;2.83;;;1.83;;
18302;SDS011;9277;37.980;23.748;2023-02-03T08:18:24;5.00;;;2.10;;
18302;SDS011;9277;37.980;23.748;2023-02-03T08:20:52;3.75;;;2.63;;
18302;SDS011;9277;37.980;23.748;2023-02-03T08:23:19;2.28;;;1.55;;
18302;SDS011;9277;37.980;23.748;2023-02-03T08:25:49;3.30;;;1.83;;
18302;SDS011;9277;37.980;23.748;2023-02-03T08:28:17;3.85;;;2.25;;
18302;SDS011;9277;37.980;23.748;2023-02-03T08:30:48;6.07;;;1.90;;
18302;SDS011;9277;37.980;23.748;2023-02-03T08:33:16;5.05;;;1.92;;
18302;SDS011;9277;37.980;23.748;2023-02-03T08:35:45;2.15;;;1.95;;
18302;SDS011;9277;37.980;23.748;2023-02-03T08:38:14;5.18;;;1.85;;
18302;SDS011;9277;37.980;23.748;2023-02-03T08:40:41;2.60;;;2.10;;
18302;SDS011;9277;37.980;23.748;2023-02-03T08:43:08;2.95;;;1.95;;
18302;SDS011;9277;37.980;23.748;2023-02-03T08:45:36;2.20;;;1.80;;
18302;SDS011;9277;37.980;23.748;2023-02-03T08:48:07;3.30;;;2.17;;
18302;SDS011;9277;37.980;23.748;2023-02-03T08:50:34;2.10;;;1.80;;
18302;SDS011;9277;37.980;23.748;2023-02-03T08:53:01;4.20;;;1.90;;
18302;SDS011;9277;37.980;23.748;2023-02-03T08:55:29;1.83;;;1.73;;
18302;SDS011;9277;37.980;23.748;2023-02-03T08:57:56;1.60;;;1.50;;
18302;SDS011;9277;37.980;23.748;2023-02-03T09:00:23;2.40;;;2.03;;
18302;SDS011;9277;37.980;23.748;2023-02-03T09:02:51;2.70;;;1.77;;
18302;SDS011;9277;37.980;23.748;2023-02-03T09:05:19;1.95;;;1.70;;
18302;SDS011;9277;37.980;23.748;2023-02-03T09:07:48;1.88;;;1.38;;
18302;SDS011;9277;37.980;23.748;2023-02-03T09:10:15;3.08;;;1.88;;
18302;SDS011;9277;37.980;23.748;2023-02-03T09:12:42;1.35;;;1.10;;
18302;SDS011;9277;37.980;23.748;2023-02-03T09:15:09;2.88;;;1.48;;
18302;SDS011;9277;37.980;23.748;2023-02-03T09:17:36;3.05;;;1.20;;
18302;SDS011;9277;37.980;23.748;2023-02-03T09:20:03;1.40;;;1.30;;
18302;SDS011;9277;37.980;23.748;2023-02-03T09:22:31;2.47;;;1.20;;
18302;SDS011;9277;37.980;23.748;2023-02-03T09:24:58;1.90;;;1.20;;
18302;SDS011;9277;37.980;23.748;2023-02-03T09:27:25;4.82;;;1.23;;
18302;SDS011;9277;37.980;23.748;2023-02-03T09:29:52;1.45;;;1.20;;
18302;SDS011;9277;37.980;23.748;2023-02-03T09:32:19;1.23;;;1.20;;
18302;SDS011;9277;37.980;23.748;2023-02-03T09:34:45;2.22;;;1.15;;
18302;SDS011;9277;37.980;23.748;2023-02-03T09:37:12;4.80;;;1.30;;
18302;SDS011;9277;37.980;23.748;2023-02-03T09:39:41;1.05;;;1.05;;
18302;SDS011;9277;37.980;23.748;2023-02-03T09:42:13;1.15;;;1.10;;
18302;SDS011;9277;37.980;23.748;2023-02-03T09:44:54;5.85;;;1.23;;
18302;SDS011;9277;37.980;23.748;2023-02-03T09:47:33;1.80;;;0.98;;
18302;SDS011;9277;37.980;23.748;2023-02-03T09:50:02;1.75;;;1.13;;
18302;SDS011;9277;37.980;23.748;2023-02-03T09:52:31;2.20;;;1.30;;
18302;SDS011;9277;37.980;23.748;2023-02-03T09:55:03;1.85;;;1.20;;
18302;SDS011;9277;37.980;23.748;2023-02-03T09:57:39;1.65;;;1.23;;
18302;SDS011;9277;37.980;23.748;2023-02-03T10:00:13;2.45;;;1.20;;
18302;SDS011;9277;37.980;23.748;2023-02-03T10:02:49;1.45;;;1.30;;
18302;SDS011;9277;37.980;23.748;2023-02-03T10:05:24;7.85;;;2.05;;
18302;SDS011;9277;37.980;23.748;2023-02-03T10:08:05;7.32;;;1.50;;
18302;SDS011;9277;37.980;23.748;2023-02-03T10:10:46;1.33;;;1.10;;
18302;SDS011;9277;37.980;23.748;2023-02-03T10:13:34;2.67;;;1.30;;
18302;SDS011;9277;37.980;23.748;2023-02-03T10:16:16;0.85;;;0.85;;
18302;SDS011;9277;37.980;23.748;2023-02-03T10:19:06;2.75;;;1.20;;
18302;SDS011;9277;37.980;23.748;2023-02-03T10:21:35;0.93;;;0.93;;
18302;SDS011;9277;37.980;23.748;2023-02-03T10:24:08;2.10;;;1.38;;
18302;SDS011;9277;37.980;23.748;2023-02-03T10:26:38;0.82;;;0.82;;
18302;SDS011;9277;37.980;23.748;2023-02-03T10:29:05;2.42;;;0.95;;
18302;SDS011;9277;37.980;23.748;2023-02-03T10:31:34;0.82;;;0.82;;
18302;SDS011;9277;37.980;23.748;2023-02-03T10:34:07;0.98;;;0.98;;
18302;SDS011;9277;37.980;23.748;2023-02-03T10:36:38;0.90;;;0.90;;
18302;SDS011;9277;37.980;23.748;2023-02-03T10:39:11;1.75;;;1.30;;
18302;SDS011;9277;37.980;23.748;2023-02-03T10:41:42;1.30;;;1.05;;
18302;SDS011;9277;37.980;23.748;2023-02-03T10:44:10;1.50;;;1.27;;
18302;SDS011;9277;37.980;23.748;2023-02-03T10:46:38;2.63;;;1.13;;
18302;SDS011;9277;37.980;23.748;2023-02-03T10:49:06;0.90;;;0.90;;
18302;SDS011;9277;37.980;23.748;2023-02-03T10:51:35;3.30;;;1.58;;
18302;SDS011;9277;37.980;23.748;2023-02-03T10:54:04;1.10;;;1.10;;
18302;SDS011;9277;37.980;23.748;2023-02-03T10:56:52;1.27;;;1.17;;
18302;SDS011;9277;37.980;23.748;2023-02-03T10:59:26;1.45;;;1.10;;
18302;SDS011;9277;37.980;23.748;2023-02-03T11:01:55;1.83;;;1.35;;
18302;SDS011;9277;37.980;23.748;2023-02-03T11:04:23;1.15;;;1.05;;
18302;SDS011;9277;37.980;23.748;2023-02-03T11:06:55;4.00;;;1.15;;
18302;SDS011;9277;37.980;23.748;2023-02-03T11:09:30;2.15;;;1.08;;
18302;SDS011;9277;37.980;23.748;2023-02-03T11:12:09;0.93;;;0.90;;
18302;SDS011;9277;37.980;23.748;2023-02-03T11:14:39;1.20;;;1.10;;
18302;SDS011;9277;37.980;23.748;2023-02-03T11:17:08;6.22;;;1.10;;
18302;SDS011;9277;37.980;23.748;2023-02-03T11:19:42;0.95;;;0.90;;
18302;SDS011;9277;37.980;23.748;2023-02-03T11:22:11;1.02;;;1.02;;
18302;SDS011;9277;37.980;23.748;2023-02-03T11:24:39;1.10;;;1.10;;
18302;SDS011;9277;37.980;23.748;2023-02-03T11:27:12;0.88;;;0.88;;
18302;SDS011;9277;37.980;23.748;2023-02-03T11:29:42;2.35;;;1.15;;
18302;SDS011;9277;37.980;23.748;2023-02-03T11:32:15;1.00;;;1.00;;
18302;SDS011;9277;37.980;23.748;2023-02-03T11:34:46;0.88;;;0.88;;
18302;SDS011;9277;37.980;23.748;2023-02-03T11:37:25;1.10;;;1.10;;
18302;SDS011;9277;37.980;23.748;2023-02-03T11:40:11;1.20;;;1.10;;
18302;SDS011;9277;37.980;23.748;2023-02-03T11:42:59;2.33;;;0.90;;
18302;SDS011;9277;37.980;23.748;2023-02-03T11:45:28;1.25;;;1.15;;
18302;SDS011;9277;37.980;23.748;2023-02-03T11:48:01;1.00;;;1.00;;
18302;SDS011;9277;37.980;23.748;2023-02-03T11:50:42;4.95;;;0.90;;
18302;SDS011;9277;37.980;23.748;2023-02-03T11:53:15;1.88;;;1.08;;
18302;SDS011;9277;37.980;23.748;2023-02-03T11:55:57;4.18;;;1.50;;
18302;SDS011;9277;37.980;23.748;2023-02-03T12:01:49;1.20;;;1.20;;
18302;SDS011;9277;37.980;23.748;2023-02-03T12:10:26;1.83;;;1.60;;
18302;SDS011;9277;37.980;23.748;2023-02-03T12:13:04;1.30;;;1.20;;
18302;SDS011;9277;37.980;23.748;2023-02-03T12:15:53;1.10;;;1.00;;
18302;SDS011;9277;37.980;23.748;2023-02-03T12:18:36;1.55;;;1.45;;
18302;SDS011;9277;37.980;23.748;2023-02-03T12:21:23;1.23;;;1.13;;
18302;SDS011;9277;37.980;23.748;2023-02-03T12:24:03;1.27;;;1.25;;
18302;SDS011;9277;37.980;23.748;2023-02-03T12:26:41;1.17;;;1.17;;
18302;SDS011;9277;37.980;23.748;2023-02-03T12:29:16;1.75;;;0.95;;
18302;SDS011;9277;37.980;23.748;2023-02-03T12:31:50;2.00;;;1.25;;
18302;SDS011;9277;37.980;23.748;2023-02-03T12:34:27;1.10;;;1.10;;
18302;SDS011;9277;37.980;23.748;2023-02-03T12:37:01;1.10;;;1.10;;
18302;SDS011;9277;37.980;23.748;2023-02-03T12:39:33;0.98;;;0.98;;
18302;SDS011;9277;37.980;23.748;2023-02-03T12:42:11;1.02;;;1.02;;
18302;SDS011;9277;37.980;23.748;2023-02-03T12:44:43;1.42;;;1.10;;
18302;SDS011;9277;37.980;23.748;2023-02-03T12:47:17;2.20;;;1.35;;
18302;SDS011;9277;37.980;23.748;2023-02-03T12:49:52;1.85;;;1.40;;
18302;SDS011;9277;37.980;23.748;2023-02-03T12:52:25;3.95;;;1.75;;
18302;SDS011;9277;37.980;23.748;2023-02-03T12:55:00;2.55;;;1.00;;
18302;SDS011;9277;37.980;23.748;2023-02-03T12:57:35;6.30;;;1.20;;
18302;SDS011;9277;37.980;23.748;2023-02-03T13:00:09;1.33;;;1.23;;
18302;SDS011;9277;37.980;23.748;2023-02-03T13:02:49;8.35;;;2.03;;
18302;SDS011;9277;37.980;23.748;2023-02-03T13:05:27;10.48;;;1.73;;
18302;SDS011;9277;37.980;23.748;2023-02-03T13:08:05;9.27;;;2.03;;
18302;SDS011;9277;37.980;23.748;2023-02-03T13:10:42;2.05;;;1.30;;
18302;SDS011;9277;37.980;23.748;2023-02-03T13:13:14;1.25;;;1.13;;
18302;SDS011;9277;37.980;23.748;2023-02-03T13:15:47;1.85;;;1.30;;
18302;SDS011;9277;37.980;23.748;2023-02-03T13:18:22;2.00;;;1.48;;
18302;SDS011;9277;37.980;23.748;2023-02-03T13:20:56;1.35;;;1.25;;
18302;SDS011;9277;37.980;23.748;2023-02-03T13:23:23;0.93;;;0.93;;
18302;SDS011;9277;37.980;23.748;2023-02-03T13:26:01;2.10;;;1.10;;
18302;SDS011;9277;37.980;23.748;2023-02-03T13:28:57;1.35;;;0.90;;
18302;SDS011;9277;37.980;23.748;2023-02-03T13:31:37;3.97;;;1.60;;
18302;SDS011;9277;37.980;23.748;2023-02-03T13:34:18;3.13;;;0.90;;
18302;SDS011;9277;37.980;23.748;2023-02-03T13:39:35;1.50;;;1.10;;
18302;SDS011;9277;37.980;23.748;2023-02-03T13:44:55;1.05;;;0.82;;
18302;SDS011;9277;37.980;23.748;2023-02-03T13:47:23;0.90;;;0.90;;
18302;SDS011;9277;37.980;23.748;2023-02-03T13:49:55;1.10;;;1.10;;
18302;SDS011;9277;37.980;23.748;2023-02-03T13:52:33;5.68;;;1.10;;
18302;SDS011;9277;37.980;23.748;2023-02-03T13:55:01;1.05;;;1.00;;
18302;SDS011;9277;37.980;23.748;2023-02-03T13:57:30;1.85;;;1.00;;
18302;SDS011;9277;37.980;23.748;2023-02-03T14:00:00;0.88;;;0.88;;
18302;SDS011;9277;37.980;23.748;2023-02-03T14:02:39;1.10;;;1.00;;
18302;SDS011;9277;37.980;23.748;2023-02-03T14:11:40;1.75;;;0.95;;
18302;SDS011;9277;37.980;23.748;2023-02-03T14:20:50;1.35;;;1.00;;
18302;SDS011;9277;37.980;23.748;2023-02-03T14:23:24;1.25;;;1.13;;
18302;SDS011;9277;37.980;23.748;2023-02-03T14:25:55;0.75;;;0.75;;
18302;SDS011;9277;37.980;23.748;2023-02-03T14:28:27;0.80;;;0.80;;
18302;SDS011;9277;37.980;23.748;2023-02-03T14:31:04;1.60;;;1.02;;
18302;SDS011;9277;37.980;23.748;2023-02-03T14:33:44;1.45;;;1.10;;
18302;SDS011;9277;37.980;23.748;2023-02-03T14:36:35;1.33;;;1.00;;
18302;SDS011;9277;37.980;23.748;2023-02-03T14:42:16;0.90;;;0.90;;
18302;SDS011;9277;37.980;23.748;2023-02-03T14:44:56;1.08;;;0.93;;
18302;SDS011;9277;37.980;23.748;2023-02-03T14:47:39;2.90;;;0.90;;
18302;SDS011;9277;37.980;23.748;2023-02-03T14:50:25;1.05;;;0.93;;
18302;SDS011;9277;37.980;23.748;2023-02-03T14:53:05;2.00;;;1.25;;
18302;SDS011;9277;37.980;23.748;2023-02-03T14:55:45;1.13;;;0.90;;
18302;SDS011;9277;37.980;23.748;2023-02-03T14:58:23;1.10;;;1.10;;
18302;SDS011;9277;37.980;23.748;2023-02-03T15:00:56;1.00;;;1.00;;
18302;SDS011;9277;37.980;23.748;2023-02-03T15:03:26;3.60;;;1.10;;
18302;SDS011;9277;37.980;23.748;2023-02-03T15:05:56;1.17;;;1.08;;
18302;SDS011;9277;37.980;23.748;2023-02-03T15:08:30;6.78;;;1.50;;
18302;SDS011;9277;37.980;23.748;2023-02-03T15:11:13;2.92;;;1.30;;
18302;SDS011;9277;37.980;23.748;2023-02-03T15:13:49;1.33;;;1.05;;
18302;SDS011;9277;37.980;23.748;2023-02-03T15:16:17;3.10;;;1.55;;
18302;SDS011;9277;37.980;23.748;2023-02-03T15:18:51;4.93;;;1.65;;
18302;SDS011;9277;37.980;23.748;2023-02-03T15:21:20;1.40;;;1.30;;
18302;SDS011;9277;37.980;23.748;2023-02-03T15:23:50;1.40;;;1.30;;
18302;SDS011;9277;37.980;23.748;2023-02-03T15:26:19;1.95;;;1.27;;
18302;SDS011;9277;37.980;23.748;2023-02-03T15:28:54;1.20;;;1.10;;
18302;SDS011;9277;37.980;23.748;2023-02-03T15:31:24;1.25;;;1.20;;
18302;SDS011;9277;37.980;23.748;2023-02-03T15:33:59;1.60;;;1.35;;
18302;SDS011;9277;37.980;23.748;2023-02-03T15:36:34;2.35;;;1.30;;
18302;SDS011;9277;37.980;23.748;2023-02-03T15:39:06;3.63;;;1.20;;
18302;SDS011;9277;37.980;23.748;2023-02-03T15:41:41;1.48;;;1.38;;
18302;SDS011;9277;37.980;23.748;2023-02-03T15:44:11;2.63;;;1.55;;